sensor_id;sensor_type;location;lat;lon;timestamp;pressure;altitude;pressure_sealevel;temperature;humidity
49178;BME280;35016;55.674;37.468;2023-12-20T00:01:03;97268.13;;;3.77;80.98
49178;BME280;35016;55.674;37.468;2023-12-20T00:03:31;97275.88;;;3.73;80.69
49178;BME280;35016;55.674;37.468;2023-12-20T00:06:09;97260.88;;;3.72;81.25
49178;BME280;35016;55.674;37.468;2023-12-20T00:08:37;97264.88;;;3.74;81.20
49178;BME280;35016;55.674;37.468;2023-12-20T00:11:05;97268.38;;;3.75;81.13
49178;BME280;35016;55.674;37.468;2023-12-20T00:13:33;97261.66;;;3.83;81.24
49178;BME280;35016;55.674;37.468;2023-12-20T00:16:00;97276.13;;;3.87;81.00
49178;BME280;35016;55.674;37.468;2023-12-20T00:18:27;97278.81;;;3.92;81.28
49178;BME280;35016;55.674;37.468;2023-12-20T00:20:54;97283.09;;;3.93;81.22
49178;BME280;35016;55.674;37.468;2023-12-20T00:23:21;97284.69;;;3.99;81.06
49178;BME280;35016;55.674;37.468;2023-12-20T00:25:50;97276.09;;;4.02;81.48
49178;BME280;35016;55.674;37.468;2023-12-20T00:28:17;97281.97;;;4.04;81.11
49178;BME280;35016;55.674;37.468;2023-12-20T00:30:44;97282.53;;;4.06;80.64
49178;BME280;35016;55.674;37.468;2023-12-20T00:33:12;97277.19;;;4.06;81.30
49178;BME280;35016;55.674;37.468;2023-12-20T00:35:39;97265.09;;;4.09;81.08
49178;BME280;35016;55.674;37.468;2023-12-20T00:38:07;97286.81;;;4.12;81.00
49178;BME280;35016;55.674;37.468;2023-12-20T00:40:35;97282.53;;;4.11;80.89
49178;BME280;35016;55.674;37.468;2023-12-20T00:43:03;97289.50;;;4.12;81.08
49178;BME280;35016;55.674;37.468;2023-12-20T00:45:30;97285.47;;;4.15;81.01
49178;BME280;35016;55.674;37.468;2023-12-20T00:47:58;97285.75;;;4.08;80.45
49178;BME280;35016;55.674;37.468;2023-12-20T00:50:26;97280.91;;;4.15;80.71
49178;BME280;35016;55.674;37.468;2023-12-20T00:52:56;97284.66;;;4.14;80.48
49178;BME280;35016;55.674;37.468;2023-12-20T00:55:24;97288.41;;;4.13;80.74
49178;BME280;35016;55.674;37.468;2023-12-20T00:57:51;97284.13;;;4.12;80.71
49178;BME280;35016;55.674;37.468;2023-12-20T01:00:20;97277.97;;;4.12;80.69
49178;BME280;35016;55.674;37.468;2023-12-20T01:02:48;97276.88;;;4.13;80.78
49178;BME280;35016;55.674;37.468;2023-12-20T01:05:18;97268.59;;;4.09;80.67
49178;BME280;35016;55.674;37.468;2023-12-20T01:07:46;97251.69;;;4.09;80.73
49178;BME280;35016;55.674;37.468;2023-12-20T01:10:14;97257.84;;;4.04;80.69
49178;BME280;35016;55.674;37.468;2023-12-20T01:12:41;97265.91;;;4.04;80.42
49178;BME280;35016;55.674;37.468;2023-12-20T01:15:09;97255.44;;;4.02;80.59
49178;BME280;35016;55.674;37.468;2023-12-20T01:17:36;97260.00;;;4.02;80.75
49178;BME280;35016;55.674;37.468;2023-12-20T01:20:03;97244.19;;;4.00;80.74
49178;BME280;35016;55.674;37.468;2023-12-20T01:22:30;97253.28;;;4.04;81.03
49178;BME280;35016;55.674;37.468;2023-12-20T01:24:58;97256.25;;;4.03;80.91
49178;BME280;35016;55.674;37.468;2023-12-20T01:27:25;97260.53;;;4.04;80.90
49178;BME280;35016;55.674;37.468;2023-12-20T01:29:52;97249.56;;;4.00;80.81
49178;BME280;35016;55.674;37.468;2023-12-20T01:32:19;97271.53;;;4.02;80.96
49178;BME280;35016;55.674;37.468;2023-12-20T01:34:46;97255.72;;;4.01;80.88
49178;BME280;35016;55.674;37.468;2023-12-20T01:37:15;97261.38;;;3.94;80.28
49178;BME280;35016;55.674;37.468;2023-12-20T01:39:43;97279.59;;;3.97;81.03
49178;BME280;35016;55.674;37.468;2023-12-20T01:42:10;97270.22;;;3.95;80.43
49178;BME280;35016;55.674;37.468;2023-12-20T01:44:37;97261.38;;;3.94;80.70
49178;BME280;35016;55.674;37.468;2023-12-20T01:47:04;97246.09;;;3.95;80.84
49178;BME280;35016;55.674;37.468;2023-12-20T01:49:31;97229.47;;;3.93;80.90
49178;BME280;35016;55.674;37.468;2023-12-20T01:51:59;97225.47;;;3.90;80.84
49178;BME280;35016;55.674;37.468;2023-12-20T01:54:26;97224.94;;;3.88;80.51
49178;BME280;35016;55.674;37.468;2023-12-20T01:56:53;97214.78;;;3.80;80.51
49178;BME280;35016;55.674;37.468;2023-12-20T01:59:21;97234.59;;;3.79;80.44
49178;BME280;35016;55.674;37.468;2023-12-20T02:01:48;97227.91;;;3.82;80.62
49178;BME280;35016;55.674;37.468;2023-12-20T02:04:16;97225.50;;;3.80;80.52
49178;BME280;35016;55.674;37.468;2023-12-20T02:06:44;97218.25;;;3.81;80.55
49178;BME280;35016;55.674;37.468;2023-12-20T02:09:13;97228.16;;;3.80;80.81
49178;BME280;35016;55.674;37.468;2023-12-20T02:11:41;97220.66;;;3.82;80.51
49178;BME280;35016;55.674;37.468;2023-12-20T02:14:09;97218.78;;;3.83;80.52
49178;BME280;35016;55.674;37.468;2023-12-20T02:16:36;97206.19;;;3.83;80.12
49178;BME280;35016;55.674;37.468;2023-12-20T02:19:07;97193.06;;;3.82;80.38
49178;BME280;35016;55.674;37.468;2023-12-20T02:21:39;97198.66;;;3.85;80.62
49178;BME280;35016;55.674;37.468;2023-12-20T02:24:06;97190.63;;;3.85;80.48
49178;BME280;35016;55.674;37.468;2023-12-20T02:26:34;97213.94;;;3.90;80.36
49178;BME280;35016;55.674;37.468;2023-12-20T02:29:02;97201.88;;;3.87;80.41
49178;BME280;35016;55.674;37.468;2023-12-20T02:31:29;97192.75;;;3.88;80.06
49178;BME280;35016;55.674;37.468;2023-12-20T02:33:56;97205.34;;;3.88;80.22
49178;BME280;35016;55.674;37.468;2023-12-20T02:36:23;97202.69;;;3.88;79.96
49178;BME280;35016;55.674;37.468;2023-12-20T02:38:50;97198.91;;;3.89;80.20
49178;BME280;35016;55.674;37.468;2023-12-20T02:41:18;97201.88;;;3.87;80.38
49178;BME280;35016;55.674;37.468;2023-12-20T02:43:45;97206.97;;;3.89;80.05
49178;BME280;35016;55.674;37.468;2023-12-20T02:46:38;97210.72;;;3.88;80.14
49178;BME280;35016;55.674;37.468;2023-12-20T02:49:06;97206.72;;;3.85;80.37
49178;BME280;35016;55.674;37.468;2023-12-20T02:51:33;97208.59;;;3.85;79.99
49178;BME280;35016;55.674;37.468;2023-12-20T02:54:01;97202.16;;;3.81;80.17
49178;BME280;35016;55.674;37.468;2023-12-20T02:56:28;97198.41;;;3.82;80.37
49178;BME280;35016;55.674;37.468;2023-12-20T02:58:55;97197.09;;;3.79;79.99
49178;BME280;35016;55.674;37.468;2023-12-20T03:01:22;97208.06;;;3.78;80.47
49178;BME280;35016;55.674;37.468;2023-12-20T03:03:50;97197.88;;;3.74;80.39
49178;BME280;35016;55.674;37.468;2023-12-20T03:06:18;97193.84;;;3.72;80.60
49178;BME280;35016;55.674;37.468;2023-12-20T03:08:46;97184.75;;;3.73;80.35
49178;BME280;35016;55.674;37.468;2023-12-20T03:11:13;97199.50;;;3.70;80.51
49178;BME280;35016;55.674;37.468;2023-12-20T03:13:40;97185.81;;;3.72;80.31
49178;BME280;35016;55.674;37.468;2023-12-20T03:16:09;97200.81;;;3.73;80.15
49178;BME280;35016;55.674;37.468;2023-12-20T03:18:37;97199.50;;;3.70;80.83
49178;BME280;35016;55.674;37.468;2023-12-20T03:21:05;97202.97;;;3.71;80.28
49178;BME280;35016;55.674;37.468;2023-12-20T03:23:32;97193.06;;;3.71;80.20
49178;BME280;35016;55.674;37.468;2023-12-20T03:26:00;97199.50;;;3.70;80.15
49178;BME280;35016;55.674;37.468;2023-12-20T03:28:27;97194.13;;;3.70;80.03
49178;BME280;35016;55.674;37.468;2023-12-20T03:30:55;97210.22;;;3.70;80.19
49178;BME280;35016;55.674;37.468;2023-12-20T03:33:23;97187.41;;;3.73;80.02
49178;BME280;35016;55.674;37.468;2023-12-20T03:35:50;97202.69;;;3.72;80.03
49178;BME280;35016;55.674;37.468;2023-12-20T03:38:17;97187.41;;;3.73;80.30
49178;BME280;35016;55.674;37.468;2023-12-20T03:40:44;97188.22;;;3.73;80.28
49178;BME280;35016;55.674;37.468;2023-12-20T03:43:12;97189.31;;;3.78;80.51
49178;BME280;35016;55.674;37.468;2023-12-20T03:45:39;97204.03;;;3.75;80.44
49178;BME280;35016;55.674;37.468;2023-12-20T03:48:06;97220.13;;;3.80;80.25
49178;BME280;35016;55.674;37.468;2023-12-20T03:50:34;97189.03;;;3.79;80.11
49178;BME280;35016;55.674;37.468;2023-12-20T03:53:02;97190.38;;;3.77;80.43
49178;BME280;35016;55.674;37.468;2023-12-20T03:55:30;97196.81;;;3.81;80.37
49178;BME280;35016;55.674;37.468;2023-12-20T03:57:57;97191.44;;;3.86;80.09
49178;BME280;35016;55.674;37.468;2023-12-20T04:00:25;97207.75;;;3.89;80.21
49178;BME280;35016;55.674;37.468;2023-12-20T04:02:52;97195.16;;;3.90;80.29
49178;BME280;35016;55.674;37.468;2023-12-20T04:05:20;97216.34;;;3.91;80.23
49178;BME280;35016;55.674;37.468;2023-12-20T04:07:47;97218.47;;;3.94;79.68
49178;BME280;35016;55.674;37.468;2023-12-20T04:10:15;97198.91;;;3.89;79.81
49178;BME280;35016;55.674;37.468;2023-12-20T04:12:42;97214.47;;;3.92;79.97
49178;BME280;35016;55.674;37.468;2023-12-20T04:15:09;97206.41;;;3.92;79.90
49178;BME280;35016;55.674;37.468;2023-12-20T04:17:38;97207.50;;;3.91;79.51
49178;BME280;35016;55.674;37.468;2023-12-20T04:20:06;97196.25;;;3.89;80.09
49178;BME280;35016;55.674;37.468;2023-12-20T04:22:34;97213.38;;;3.93;79.79
49178;BME280;35016;55.674;37.468;2023-12-20T04:25:01;97205.88;;;3.90;79.76
49178;BME280;35016;55.674;37.468;2023-12-20T04:27:30;97222.22;;;3.93;79.60
49178;BME280;35016;55.674;37.468;2023-12-20T04:29:57;97230.81;;;3.95;79.93
49178;BME280;35016;55.674;37.468;2023-12-20T04:32:31;97236.16;;;3.95;79.84
49178;BME280;35016;55.674;37.468;2023-12-20T04:34:58;97231.88;;;3.94;79.68
49178;BME280;35016;55.674;37.468;2023-12-20T04:37:26;97244.22;;;3.95;79.66
49178;BME280;35016;55.674;37.468;2023-12-20T04:39:53;97254.94;;;3.95;79.39
49178;BME280;35016;55.674;37.468;2023-12-20T04:42:20;97246.34;;;3.93;79.56
49178;BME280;35016;55.674;37.468;2023-12-20T04:44:48;97241.00;;;3.93;79.83
49178;BME280;35016;55.674;37.468;2023-12-20T04:47:15;97239.38;;;3.92;79.82
49178;BME280;35016;55.674;37.468;2023-12-20T04:49:43;97240.19;;;3.93;79.74
49178;BME280;35016;55.674;37.468;2023-12-20T04:52:10;97237.78;;;3.91;79.32
49178;BME280;35016;55.674;37.468;2023-12-20T04:54:37;97236.97;;;3.91;79.32
49178;BME280;35016;55.674;37.468;2023-12-20T04:57:06;97240.75;;;3.90;79.17
49178;BME280;35016;55.674;37.468;2023-12-20T04:59:33;97234.06;;;3.82;79.56
49178;BME280;35016;55.674;37.468;2023-12-20T05:02:00;97233.25;;;3.82;79.22
49178;BME280;35016;55.674;37.468;2023-12-20T05:04:28;97236.22;;;3.80;78.93
49178;BME280;35016;55.674;37.468;2023-12-20T05:06:55;97232.47;;;3.76;79.31
49178;BME280;35016;55.674;37.468;2023-12-20T05:09:22;97239.44;;;3.72;78.93
49178;BME280;35016;55.674;37.468;2023-12-20T05:11:49;97231.66;;;3.70;79.11
49178;BME280;35016;55.674;37.468;2023-12-20T05:14:16;97229.25;;;3.64;79.05
49178;BME280;35016;55.674;37.468;2023-12-20T05:16:43;97246.13;;;3.69;79.08
49178;BME280;35016;55.674;37.468;2023-12-20T05:19:10;97241.31;;;3.66;78.95
49178;BME280;35016;55.674;37.468;2023-12-20T05:21:37;97237.84;;;3.66;79.13
49178;BME280;35016;55.674;37.468;2023-12-20T05:24:05;97239.44;;;3.62;79.17
49178;BME280;35016;55.674;37.468;2023-12-20T05:26:32;97235.72;;;3.53;79.01
49178;BME280;35016;55.674;37.468;2023-12-20T05:29:00;97241.84;;;3.68;78.97
49178;BME280;35016;55.674;37.468;2023-12-20T05:31:30;97241.56;;;3.70;79.02
49178;BME280;35016;55.674;37.468;2023-12-20T05:33:58;97244.50;;;3.73;79.25
49178;BME280;35016;55.674;37.468;2023-12-20T05:36:25;97253.91;;;3.76;78.79
49178;BME280;35016;55.674;37.468;2023-12-20T05:38:53;97248.00;;;3.74;78.63
49178;BME280;35016;55.674;37.468;2023-12-20T05:41:20;97260.59;;;3.73;79.13
49178;BME280;35016;55.674;37.468;2023-12-20T05:43:48;97250.41;;;3.70;78.57
49178;BME280;35016;55.674;37.468;2023-12-20T05:46:15;97248.56;;;3.66;78.59
49178;BME280;35016;55.674;37.468;2023-12-20T05:48:42;97251.25;;;3.61;78.65
49178;BME280;35016;55.674;37.468;2023-12-20T05:51:13;97262.75;;;3.61;78.37
49178;BME280;35016;55.674;37.468;2023-12-20T05:53:40;97247.50;;;3.52;78.82
49178;BME280;35016;55.674;37.468;2023-12-20T05:56:07;97260.09;;;3.56;78.74
49178;BME280;35016;55.674;37.468;2023-12-20T05:58:35;97260.09;;;3.56;78.91
49178;BME280;35016;55.674;37.468;2023-12-20T06:01:06;97257.16;;;3.58;79.01
49178;BME280;35016;55.674;37.468;2023-12-20T06:03:34;97256.59;;;3.56;78.86
49178;BME280;35016;55.674;37.468;2023-12-20T06:06:08;97255.53;;;3.62;78.90
49178;BME280;35016;55.674;37.468;2023-12-20T06:08:43;97275.09;;;3.57;79.11
49178;BME280;35016;55.674;37.468;2023-12-20T06:11:11;97264.63;;;3.66;78.95
49178;BME280;35016;55.674;37.468;2023-12-20T06:13:38;97267.03;;;3.67;78.90
49178;BME280;35016;55.674;37.468;2023-12-20T06:16:05;97268.09;;;3.71;78.78
49178;BME280;35016;55.674;37.468;2023-12-20T06:18:34;97276.66;;;3.73;78.83
49178;BME280;35016;55.674;37.468;2023-12-20T06:21:02;97281.53;;;3.77;79.05
49178;BME280;35016;55.674;37.468;2023-12-20T06:23:29;97283.41;;;3.76;78.67
49178;BME280;35016;55.674;37.468;2023-12-20T06:25:56;97282.31;;;3.82;78.56
49178;BME280;35016;55.674;37.468;2023-12-20T06:28:23;97284.19;;;3.82;78.75
49178;BME280;35016;55.674;37.468;2023-12-20T06:30:50;97269.19;;;3.81;78.59
49178;BME280;35016;55.674;37.468;2023-12-20T06:33:20;97274.00;;;3.84;78.64
49178;BME280;35016;55.674;37.468;2023-12-20T06:35:49;97263.56;;;3.82;78.50
49178;BME280;35016;55.674;37.468;2023-12-20T06:38:18;97267.03;;;3.88;78.73
49178;BME280;35016;55.674;37.468;2023-12-20T06:40:45;97289.53;;;3.87;78.52
49178;BME280;35016;55.674;37.468;2023-12-20T06:43:13;97266.75;;;3.89;78.53
49178;BME280;35016;55.674;37.468;2023-12-20T06:45:58;97262.19;;;3.90;78.65
49178;BME280;35016;55.674;37.468;2023-12-20T06:48:27;97277.19;;;3.91;78.18
49178;BME280;35016;55.674;37.468;2023-12-20T06:50:54;97277.19;;;3.91;78.30
49178;BME280;35016;55.674;37.468;2023-12-20T06:53:21;97267.81;;;3.93;77.94
49178;BME280;35016;55.674;37.468;2023-12-20T06:55:48;97291.66;;;3.95;78.01
49178;BME280;35016;55.674;37.468;2023-12-20T06:58:15;97267.81;;;3.93;78.25
49178;BME280;35016;55.674;37.468;2023-12-20T07:00:43;97284.94;;;3.97;78.14
49178;BME280;35016;55.674;37.468;2023-12-20T07:03:11;97276.63;;;3.99;78.39
49178;BME280;35016;55.674;37.468;2023-12-20T07:05:38;97269.41;;;3.99;78.21
49178;BME280;35016;55.674;37.468;2023-12-20T07:08:06;97272.59;;;4.01;78.35
49178;BME280;35016;55.674;37.468;2023-12-20T07:10:33;97268.84;;;4.02;77.96
49178;BME280;35016;55.674;37.468;2023-12-20T07:13:01;97273.69;;;4.06;78.06
49178;BME280;35016;55.674;37.468;2023-12-20T07:15:28;97277.19;;;4.06;78.03
49178;BME280;35016;55.674;37.468;2023-12-20T07:17:56;97279.59;;;4.08;77.89
49178;BME280;35016;55.674;37.468;2023-12-20T07:20:23;97276.91;;;4.08;78.24
49178;BME280;35016;55.674;37.468;2023-12-20T07:22:51;97276.88;;;4.13;78.17
49178;BME280;35016;55.674;37.468;2023-12-20T07:25:19;97286.53;;;4.19;78.23
49178;BME280;35016;55.674;37.468;2023-12-20T07:27:47;97283.56;;;4.20;77.79
49178;BME280;35016;55.674;37.468;2023-12-20T07:30:15;97286.78;;;4.22;77.53
49178;BME280;35016;55.674;37.468;2023-12-20T07:32:42;97298.06;;;4.19;77.62
49178;BME280;35016;55.674;37.468;2023-12-20T07:35:09;97302.34;;;4.20;78.09
49178;BME280;35016;55.674;37.468;2023-12-20T07:37:37;97308.50;;;4.21;78.08
49178;BME280;35016;55.674;37.468;2023-12-20T07:40:04;97299.94;;;4.19;77.99
49178;BME280;35016;55.674;37.468;2023-12-20T07:42:32;97301.28;;;4.16;77.97
49178;BME280;35016;55.674;37.468;2023-12-20T07:44:59;97310.13;;;4.17;78.03
49178;BME280;35016;55.674;37.468;2023-12-20T07:47:26;97305.56;;;4.17;78.11
49178;BME280;35016;55.674;37.468;2023-12-20T07:49:53;97315.78;;;4.15;77.91
49178;BME280;35016;55.674;37.468;2023-12-20T07:52:24;97312.00;;;4.21;77.98
49178;BME280;35016;55.674;37.468;2023-12-20T07:54:51;97309.59;;;4.20;77.56
49178;BME280;35016;55.674;37.468;2023-12-20T07:57:18;97316.31;;;4.17;77.73
49178;BME280;35016;55.674;37.468;2023-12-20T07:59:45;97303.16;;;4.21;77.99
49178;BME280;35016;55.674;37.468;2023-12-20T08:02:12;97308.50;;;4.21;78.04
49178;BME280;35016;55.674;37.468;2023-12-20T08:04:39;97307.97;;;4.24;77.65
49178;BME280;35016;55.674;37.468;2023-12-20T08:07:08;97318.16;;;4.27;77.87
49178;BME280;35016;55.674;37.468;2023-12-20T08:09:35;97312.50;;;4.28;77.87
49178;BME280;35016;55.674;37.468;2023-12-20T08:12:03;97314.91;;;4.30;77.94
49178;BME280;35016;55.674;37.468;2023-12-20T08:14:31;97309.28;;;4.31;77.77
49178;BME280;35016;55.674;37.468;2023-12-20T08:16:58;97305.28;;;4.34;77.97
49178;BME280;35016;55.674;37.468;2023-12-20T08:19:25;97312.25;;;4.35;77.76
49178;BME280;35016;55.674;37.468;2023-12-20T08:21:53;97302.84;;;4.38;77.56
49178;BME280;35016;55.674;37.468;2023-12-20T08:24:20;97310.34;;;4.41;77.23
49178;BME280;35016;55.674;37.468;2023-12-20T08:26:47;97304.16;;;4.45;77.60
49178;BME280;35016;55.674;37.468;2023-12-20T08:29:14;97310.34;;;4.41;77.05
49178;BME280;35016;55.674;37.468;2023-12-20T08:31:41;97305.25;;;4.39;77.61
49178;BME280;35016;55.674;37.468;2023-12-20T08:34:08;97313.56;;;4.43;76.99
49178;BME280;35016;55.674;37.468;2023-12-20T08:36:38;97293.16;;;4.42;77.67
49178;BME280;35016;55.674;37.468;2023-12-20T08:39:10;97300.13;;;4.48;77.28
49178;BME280;35016;55.674;37.468;2023-12-20T08:41:37;97296.09;;;4.45;77.49
49178;BME280;35016;55.674;37.468;2023-12-20T08:44:04;97307.09;;;4.49;77.10
49178;BME280;35016;55.674;37.468;2023-12-20T08:46:31;97308.69;;;4.50;77.67
49178;BME280;35016;55.674;37.468;2023-12-20T08:48:58;97303.88;;;4.47;77.30
49178;BME280;35016;55.674;37.468;2023-12-20T08:51:26;97296.09;;;4.45;77.13
49178;BME280;35016;55.674;37.468;2023-12-20T08:53:53;97295.53;;;4.48;77.46
49178;BME280;35016;55.674;37.468;2023-12-20T08:56:21;97298.47;;;4.52;77.47
49178;BME280;35016;55.674;37.468;2023-12-20T08:58:48;97290.97;;;4.49;77.14
49178;BME280;35016;55.674;37.468;2023-12-20T09:01:15;97283.72;;;4.49;77.49
49178;BME280;35016;55.674;37.468;2023-12-20T09:03:42;97297.44;;;4.48;77.34
49178;BME280;35016;55.674;37.468;2023-12-20T09:06:10;97290.19;;;4.48;77.06
49178;BME280;35016;55.674;37.468;2023-12-20T09:08:38;97294.47;;;4.49;77.25
49178;BME280;35016;55.674;37.468;2023-12-20T09:11:06;97289.66;;;4.46;77.72
49178;BME280;35016;55.674;37.468;2023-12-20T09:13:34;97301.72;;;4.49;77.63
49178;BME280;35016;55.674;37.468;2023-12-20T09:16:01;97304.13;;;4.50;77.44
49178;BME280;35016;55.674;37.468;2023-12-20T09:18:28;97294.22;;;4.46;77.40
49178;BME280;35016;55.674;37.468;2023-12-20T09:20:55;97291.25;;;4.47;77.58
49178;BME280;35016;55.674;37.468;2023-12-20T09:23:22;97297.97;;;4.45;77.30
49178;BME280;35016;55.674;37.468;2023-12-20T09:25:49;97291.78;;;4.49;77.48
49178;BME280;35016;55.674;37.468;2023-12-20T09:28:19;97275.16;;;4.47;77.65
49178;BME280;35016;55.674;37.468;2023-12-20T09:30:46;97278.38;;;4.49;77.06
49178;BME280;35016;55.674;37.468;2023-12-20T09:33:14;97285.63;;;4.49;77.42
49178;BME280;35016;55.674;37.468;2023-12-20T09:35:43;97278.63;;;4.53;77.41
49178;BME280;35016;55.674;37.468;2023-12-20T09:38:11;97280.50;;;4.52;77.46
49178;BME280;35016;55.674;37.468;2023-12-20T09:40:41;97277.53;;;4.54;77.76
49178;BME280;35016;55.674;37.468;2023-12-20T09:43:11;97260.66;;;4.48;77.73
49178;BME280;35016;55.674;37.468;2023-12-20T09:45:41;97265.44;;;4.56;77.52
49178;BME280;35016;55.674;37.468;2023-12-20T09:48:10;97255.28;;;4.53;77.72
49178;BME280;35016;55.674;37.468;2023-12-20T09:50:37;97255.25;;;4.58;77.37
49178;BME280;35016;55.674;37.468;2023-12-20T09:53:08;97264.91;;;4.59;77.09
49178;BME280;35016;55.674;37.468;2023-12-20T09:55:36;97270.53;;;4.58;77.38
49178;BME280;35016;55.674;37.468;2023-12-20T09:58:04;97285.56;;;4.59;77.37
49178;BME280;35016;55.674;37.468;2023-12-20T10:00:32;97282.06;;;4.58;77.78
49178;BME280;35016;55.674;37.468;2023-12-20T10:03:00;97271.91;;;4.55;77.75
49178;BME280;35016;55.674;37.468;2023-12-20T10:05:29;97279.16;;;4.55;77.15
49178;BME280;35016;55.674;37.468;2023-12-20T10:07:58;97272.44;;;4.52;77.63
49178;BME280;35016;55.674;37.468;2023-12-20T10:10:27;97283.47;;;4.51;77.55
49178;BME280;35016;55.674;37.468;2023-12-20T10:13:10;97273.53;;;4.51;76.96
49178;BME280;35016;55.674;37.468;2023-12-20T10:15:38;97280.22;;;4.54;77.49
49178;BME280;35016;55.674;37.468;2023-12-20T10:18:06;97295.53;;;4.53;77.15
49178;BME280;35016;55.674;37.468;2023-12-20T10:20:34;97285.63;;;4.49;77.06
49178;BME280;35016;55.674;37.468;2023-12-20T10:23:01;97289.94;;;4.45;77.03
49178;BME280;35016;55.674;37.468;2023-12-20T10:25:29;97303.34;;;4.45;76.99
49178;BME280;35016;55.674;37.468;2023-12-20T10:28:11;97299.88;;;4.39;77.45
49178;BME280;35016;55.674;37.468;2023-12-20T10:30:40;97304.97;;;4.41;77.16
49178;BME280;35016;55.674;37.468;2023-12-20T10:33:08;97307.66;;;4.41;77.50
49178;BME280;35016;55.674;37.468;2023-12-20T10:35:37;97300.66;;;4.45;77.03
49178;BME280;35016;55.674;37.468;2023-12-20T10:38:05;97287.78;;;4.47;77.41
49178;BME280;35016;55.674;37.468;2023-12-20T10:40:35;97291.25;;;4.47;77.58
49178;BME280;35016;55.674;37.468;2023-12-20T10:43:05;97293.66;;;4.49;77.21
49178;BME280;35016;55.674;37.468;2023-12-20T10:45:32;97294.75;;;4.48;77.46
49178;BME280;35016;55.674;37.468;2023-12-20T10:48:01;97296.91;;;4.46;77.38
49178;BME280;35016;55.674;37.468;2023-12-20T10:50:30;97303.06;;;4.46;77.07
49178;BME280;35016;55.674;37.468;2023-12-20T10:52:58;97307.34;;;4.47;77.09
49178;BME280;35016;55.674;37.468;2023-12-20T10:55:26;97316.22;;;4.48;77.04
49178;BME280;35016;55.674;37.468;2023-12-20T10:58:01;97319.44;;;4.45;77.26
49178;BME280;35016;55.674;37.468;2023-12-20T11:00:29;97318.66;;;4.44;77.29
49178;BME280;35016;55.674;37.468;2023-12-20T11:03:00;97310.88;;;4.43;77.41
49178;BME280;35016;55.674;37.468;2023-12-20T11:05:46;97313.81;;;4.46;76.83
49178;BME280;35016;55.674;37.468;2023-12-20T11:13:35;97305.47;;;4.48;77.39
49178;BME280;35016;55.674;37.468;2023-12-20T11:16:05;97303.59;;;4.48;77.01
49178;BME280;35016;55.674;37.468;2023-12-20T11:18:32;97315.41;;;4.47;77.45
49178;BME280;35016;55.674;37.468;2023-12-20T11:21:01;97323.47;;;4.47;77.25
49178;BME280;35016;55.674;37.468;2023-12-20T11:23:31;97317.84;;;4.44;77.28
49178;BME280;35016;55.674;37.468;2023-12-20T11:26:02;97313.56;;;4.43;77.29
49178;BME280;35016;55.674;37.468;2023-12-20T11:28:30;97317.03;;;4.43;77.08
49178;BME280;35016;55.674;37.468;2023-12-20T11:30:58;97296.66;;;4.42;77.29
49178;BME280;35016;55.674;37.468;2023-12-20T11:33:37;97313.31;;;4.39;77.24
49178;BME280;35016;55.674;37.468;2023-12-20T11:36:13;97308.22;;;4.38;77.16
49178;BME280;35016;55.674;37.468;2023-12-20T11:39:01;97310.38;;;4.35;77.46
49178;BME280;35016;55.674;37.468;2023-12-20T11:41:33;97303.66;;;4.28;77.69
49178;BME280;35016;55.674;37.468;2023-12-20T11:44:00;97302.03;;;4.32;77.44
49178;BME280;35016;55.674;37.468;2023-12-20T11:46:28;97287.03;;;4.26;77.63
49178;BME280;35016;55.674;37.468;2023-12-20T11:48:55;97312.47;;;4.33;77.60
49178;BME280;35016;55.674;37.468;2023-12-20T11:51:23;97307.13;;;4.33;77.61
49178;BME280;35016;55.674;37.468;2023-12-20T11:53:53;97293.97;;;4.32;77.98
49178;BME280;35016;55.674;37.468;2023-12-20T11:56:20;97307.41;;;4.32;77.75
49178;BME280;35016;55.674;37.468;2023-12-20T11:58:47;97315.72;;;4.35;77.74
49178;BME280;35016;55.674;37.468;2023-12-20T12:01:19;97320.81;;;4.37;77.92
49178;BME280;35016;55.674;37.468;2023-12-20T12:03:48;97323.50;;;4.37;78.08
49178;BME280;35016;55.674;37.468;2023-12-20T12:06:15;97314.94;;;4.35;77.92
49178;BME280;35016;55.674;37.468;2023-12-20T12:08:42;97317.06;;;4.33;78.29
49178;BME280;35016;55.674;37.468;2023-12-20T12:11:10;97319.50;;;4.34;77.89
49178;BME280;35016;55.674;37.468;2023-12-20T12:13:37;97309.00;;;4.33;78.43
49178;BME280;35016;55.674;37.468;2023-12-20T12:16:04;97315.44;;;4.32;78.37
49178;BME280;35016;55.674;37.468;2023-12-20T12:18:32;97319.50;;;4.34;78.22
49178;BME280;35016;55.674;37.468;2023-12-20T12:21:00;97317.59;;;4.30;78.06
49178;BME280;35016;55.674;37.468;2023-12-20T12:23:35;97321.88;;;4.31;78.09
49178;BME280;35016;55.674;37.468;2023-12-20T12:26:06;97309.56;;;4.25;78.45
49178;BME280;35016;55.674;37.468;2023-12-20T12:28:34;97318.94;;;4.27;78.24
49178;BME280;35016;55.674;37.468;2023-12-20T12:31:02;97316.00;;;4.24;78.56
49178;BME280;35016;55.674;37.468;2023-12-20T12:33:29;97325.91;;;4.28;78.18
49178;BME280;35016;55.674;37.468;2023-12-20T12:35:56;97316.25;;;4.27;78.27
49178;BME280;35016;55.674;37.468;2023-12-20T12:38:24;97318.69;;;4.24;78.29
49178;BME280;35016;55.674;37.468;2023-12-20T12:40:51;97324.88;;;4.19;78.66
49178;BME280;35016;55.674;37.468;2023-12-20T12:43:20;97326.47;;;4.20;78.09
49178;BME280;35016;55.674;37.468;2023-12-20T12:45:50;97323.00;;;4.20;77.99
49178;BME280;35016;55.674;37.468;2023-12-20T12:48:17;97331.59;;;4.17;78.56
49178;BME280;35016;55.674;37.468;2023-12-20T12:50:48;97313.09;;;4.10;78.56
49178;BME280;35016;55.674;37.468;2023-12-20T12:53:15;97337.25;;;4.10;78.58
49178;BME280;35016;55.674;37.468;2023-12-20T12:55:42;97350.91;;;4.09;78.16
49178;BME280;35016;55.674;37.468;2023-12-20T12:58:09;97337.50;;;4.03;78.36
49178;BME280;35016;55.674;37.468;2023-12-20T13:00:37;97345.28;;;4.05;78.84
49178;BME280;35016;55.674;37.468;2023-12-20T13:03:04;97342.06;;;4.03;78.33
49178;BME280;35016;55.674;37.468;2023-12-20T13:05:31;97347.97;;;4.05;78.46
49178;BME280;35016;55.674;37.468;2023-12-20T13:08:04;97361.38;;;4.05;78.62
49178;BME280;35016;55.674;37.468;2023-12-20T13:10:32;97340.72;;;4.00;78.54